sensor_id;sensor_type;location;lat;lon;timestamp;pressure;altitude;pressure_sealevel;temperature;humidity
74722;BME280;63470;49.826;6.740;2023-05-02T00:00:41;100484.86;;;7.52;56.30
74722;BME280;63470;49.826;6.740;2023-05-02T00:03:13;100487.08;;;7.47;56.37
74722;BME280;63470;49.826;6.740;2023-05-02T00:05:42;100494.03;;;7.42;56.42
74722;BME280;63470;49.826;6.740;2023-05-02T00:08:12;100491.18;;;7.37;56.46
74722;BME280;63470;49.826;6.740;2023-05-02T00:10:43;100489.10;;;7.36;56.41
74722;BME280;63470;49.826;6.740;2023-05-02T00:13:13;100494.76;;;7.31;56.41
74722;BME280;63470;49.826;6.740;2023-05-02T00:15:43;100491.98;;;7.26;56.51
74722;BME280;63470;49.826;6.740;2023-05-02T00:18:14;100494.28;;;7.25;56.52
74722;BME280;63470;49.826;6.740;2023-05-02T00:20:45;100490.02;;;7.27;56.39
74722;BME280;63470;49.826;6.740;2023-05-02T00:23:15;100493.54;;;7.23;56.38
74722;BME280;63470;49.826;6.740;2023-05-02T00:25:48;100493.42;;;7.19;56.43
74722;BME280;63470;49.826;6.740;2023-05-02T00:28:18;100496.87;;;7.17;56.45
74722;BME280;63470;49.826;6.740;2023-05-02T00:30:47;100495.48;;;7.16;56.41
74722;BME280;63470;49.826;6.740;2023-05-02T00:33:18;100497.54;;;7.13;56.49
74722;BME280;63470;49.826;6.740;2023-05-02T00:35:48;100496.22;;;7.12;56.51
74722;BME280;63470;49.826;6.740;2023-05-02T00:38:19;100497.29;;;7.14;56.52
74722;BME280;63470;49.826;6.740;2023-05-02T00:40:54;100500.23;;;7.12;56.52
74722;BME280;63470;49.826;6.740;2023-05-02T00:43:20;100501.45;;;7.11;56.47
74722;BME280;63470;49.826;6.740;2023-05-02T00:45:50;100503.59;;;7.07;56.44
74722;BME280;63470;49.826;6.740;2023-05-02T00:48:21;100501.76;;;6.98;56.50
74722;BME280;63470;49.826;6.740;2023-05-02T00:50:51;100502.72;;;6.89;56.60
74722;BME280;63470;49.826;6.740;2023-05-02T00:53:21;100504.80;;;6.81;56.70
74722;BME280;63470;49.826;6.740;2023-05-02T00:55:53;100503.51;;;6.78;56.66
74722;BME280;63470;49.826;6.740;2023-05-02T00:58:26;100504.13;;;6.72;56.68
74722;BME280;63470;49.826;6.740;2023-05-02T01:01:24;100506.96;;;6.64;56.81
74722;BME280;63470;49.826;6.740;2023-05-02T01:06:03;100507.14;;;6.64;56.76
74722;BME280;63470;49.826;6.740;2023-05-02T01:08:34;100501.62;;;6.63;56.69
74722;BME280;63470;49.826;6.740;2023-05-02T01:11:16;100505.31;;;6.62;56.64
74722;BME280;63470;49.826;6.740;2023-05-02T01:13:30;100511.84;;;6.59;56.59
74722;BME280;63470;49.826;6.740;2023-05-02T01:15:58;100513.72;;;6.57;56.62
74722;BME280;63470;49.826;6.740;2023-05-02T01:18:30;100511.27;;;6.55;56.58
74722;BME280;63470;49.826;6.740;2023-05-02T01:21:06;100510.11;;;6.52;56.66
74722;BME280;63470;49.826;6.740;2023-05-02T01:23:39;100509.18;;;6.51;56.71
74722;BME280;63470;49.826;6.740;2023-05-02T01:31:02;100511.77;;;6.42;56.67
74722;BME280;63470;49.826;6.740;2023-05-02T01:33:31;100518.41;;;6.40;56.71
74722;BME280;63470;49.826;6.740;2023-05-02T01:36:02;100519.67;;;6.36;56.78
74722;BME280;63470;49.826;6.740;2023-05-02T01:38:33;100529.44;;;6.35;56.77
74722;BME280;63470;49.826;6.740;2023-05-02T01:41:11;100535.47;;;6.31;56.78
74722;BME280;63470;49.826;6.740;2023-05-02T01:43:36;100543.31;;;6.25;56.88
74722;BME280;63470;49.826;6.740;2023-05-02T01:46:08;100548.61;;;6.24;56.86
74722;BME280;63470;49.826;6.740;2023-05-02T01:48:35;100551.23;;;6.23;56.84
74722;BME280;63470;49.826;6.740;2023-05-02T01:51:05;100552.85;;;6.19;56.82
74722;BME280;63470;49.826;6.740;2023-05-02T01:53:35;100555.69;;;6.16;56.85
74722;BME280;63470;49.826;6.740;2023-05-02T01:56:06;100557.89;;;6.13;56.88
74722;BME280;63470;49.826;6.740;2023-05-02T01:58:37;100562.80;;;6.13;56.85
74722;BME280;63470;49.826;6.740;2023-05-02T02:01:08;100567.88;;;6.13;56.77
74722;BME280;63470;49.826;6.740;2023-05-02T02:03:36;100573.52;;;6.11;56.82
74722;BME280;63470;49.826;6.740;2023-05-02T02:06:08;100575.86;;;6.07;56.89
74722;BME280;63470;49.826;6.740;2023-05-02T02:08:37;100570.42;;;6.03;57.00
74722;BME280;63470;49.826;6.740;2023-05-02T02:11:11;100578.46;;;6.05;56.99
74722;BME280;63470;49.826;6.740;2023-05-02T02:13:42;100577.41;;;6.05;56.89
74722;BME280;63470;49.826;6.740;2023-05-02T02:16:12;100586.73;;;6.02;56.87
74722;BME280;63470;49.826;6.740;2023-05-02T02:18:41;100592.83;;;5.99;56.90
74722;BME280;63470;49.826;6.740;2023-05-02T02:21:15;100593.36;;;5.94;56.93
74722;BME280;63470;49.826;6.740;2023-05-02T02:23:46;100601.58;;;5.95;56.89
74722;BME280;63470;49.826;6.740;2023-05-02T02:26:15;100605.19;;;5.96;56.89
74722;BME280;63470;49.826;6.740;2023-05-02T02:28:42;100609.94;;;5.97;56.85
74722;BME280;63470;49.826;6.740;2023-05-02T02:31:13;100615.77;;;5.98;56.88
74722;BME280;63470;49.826;6.740;2023-05-02T02:33:43;100619.55;;;6.01;56.84
74722;BME280;63470;49.826;6.740;2023-05-02T02:36:19;100624.08;;;6.02;56.83
74722;BME280;63470;49.826;6.740;2023-05-02T02:41:26;100618.43;;;6.03;56.88
74722;BME280;63470;49.826;6.740;2023-05-02T02:43:59;100623.14;;;6.09;56.85
74722;BME280;63470;49.826;6.740;2023-05-02T02:56:21;100627.61;;;6.57;56.50
74722;BME280;63470;49.826;6.740;2023-05-02T02:58:53;100630.45;;;6.67;56.41
74722;BME280;63470;49.826;6.740;2023-05-02T03:01:20;100628.72;;;6.76;56.29
74722;BME280;63470;49.826;6.740;2023-05-02T03:03:50;100631.61;;;6.82;56.28
74722;BME280;63470;49.826;6.740;2023-05-02T03:06:23;100634.75;;;6.84;56.28
74722;BME280;63470;49.826;6.740;2023-05-02T03:08:50;100637.45;;;6.85;56.36
74722;BME280;63470;49.826;6.740;2023-05-02T03:11:19;100636.97;;;6.87;56.36
74722;BME280;63470;49.826;6.740;2023-05-02T03:13:52;100638.70;;;6.88;56.29
74722;BME280;63470;49.826;6.740;2023-05-02T03:16:36;100640.90;;;6.87;56.29
74722;BME280;63470;49.826;6.740;2023-05-02T03:18:51;100648.28;;;6.82;56.36
74722;BME280;63470;49.826;6.740;2023-05-02T03:21:21;100648.83;;;6.78;56.48
74722;BME280;63470;49.826;6.740;2023-05-02T03:23:55;100649.80;;;6.76;56.50
74722;BME280;63470;49.826;6.740;2023-05-02T03:26:25;100649.77;;;6.75;56.42
74722;BME280;63470;49.826;6.740;2023-05-02T03:28:56;100645.05;;;6.69;56.44
74722;BME280;63470;49.826;6.740;2023-05-02T03:31:24;100649.55;;;6.63;56.45
74722;BME280;63470;49.826;6.740;2023-05-02T03:33:55;100657.51;;;6.55;56.49
74722;BME280;63470;49.826;6.740;2023-05-02T03:36:25;100664.47;;;6.43;56.67
74722;BME280;63470;49.826;6.740;2023-05-02T03:38:58;100673.44;;;6.35;56.80
74722;BME280;63470;49.826;6.740;2023-05-02T03:41:26;100666.66;;;6.29;56.83
74722;BME280;63470;49.826;6.740;2023-05-02T03:43:57;100671.55;;;6.24;56.82
74722;BME280;63470;49.826;6.740;2023-05-02T03:46:27;100666.64;;;6.16;56.94
74722;BME280;63470;49.826;6.740;2023-05-02T03:48:57;100668.56;;;6.13;56.98
74722;BME280;63470;49.826;6.740;2023-05-02T03:51:28;100668.36;;;6.07;57.03
74722;BME280;63470;49.826;6.740;2023-05-02T03:53:59;100663.23;;;6.04;57.08
74722;BME280;63470;49.826;6.740;2023-05-02T03:56:29;100666.07;;;6.01;57.08
74722;BME280;63470;49.826;6.740;2023-05-02T03:59:01;100667.88;;;6.01;57.13
74722;BME280;63470;49.826;6.740;2023-05-02T04:01:31;100663.62;;;6.08;57.04
74722;BME280;63470;49.826;6.740;2023-05-02T04:04:00;100664.52;;;6.19;56.88
74722;BME280;63470;49.826;6.740;2023-05-02T04:06:34;100663.84;;;6.25;56.78
74722;BME280;63470;49.826;6.740;2023-05-02T04:09:02;100668.80;;;6.30;56.69
74722;BME280;63470;49.826;6.740;2023-05-02T04:11:34;100667.75;;;6.33;56.59
74722;BME280;63470;49.826;6.740;2023-05-02T04:14:04;100670.77;;;6.30;56.68
74722;BME280;63470;49.826;6.740;2023-05-02T04:16:33;100674.22;;;6.30;56.71
74722;BME280;63470;49.826;6.740;2023-05-02T04:19:04;100675.27;;;6.29;56.74
74722;BME280;63470;49.826;6.740;2023-05-02T04:21:35;100665.78;;;6.31;56.74
74722;BME280;63470;49.826;6.740;2023-05-02T04:24:05;100670.38;;;6.31;56.76
74722;BME280;63470;49.826;6.740;2023-05-02T04:26:36;100673.94;;;6.36;56.72
74722;BME280;63470;49.826;6.740;2023-05-02T04:29:06;100676.84;;;6.42;56.68
74722;BME280;63470;49.826;6.740;2023-05-02T04:31:36;100674.11;;;6.46;56.65
74722;BME280;63470;49.826;6.740;2023-05-02T04:34:07;100681.62;;;6.47;56.69
74722;BME280;63470;49.826;6.740;2023-05-02T04:36:38;100680.58;;;6.47;56.77
74722;BME280;63470;49.826;6.740;2023-05-02T04:39:09;100689.16;;;6.53;56.74
74722;BME280;63470;49.826;6.740;2023-05-02T04:41:38;100691.20;;;6.63;56.68
74722;BME280;63470;49.826;6.740;2023-05-02T04:44:09;100695.34;;;6.80;56.59
74722;BME280;63470;49.826;6.740;2023-05-02T04:46:39;100695.46;;;7.03;56.37
74722;BME280;63470;49.826;6.740;2023-05-02T04:49:11;100701.04;;;7.29;56.11
74722;BME280;63470;49.826;6.740;2023-05-02T04:51:40;100694.72;;;7.52;55.89
74722;BME280;63470;49.826;6.740;2023-05-02T04:54:11;100700.71;;;7.74;55.73
74722;BME280;63470;49.826;6.740;2023-05-02T04:56:44;100700.88;;;7.94;55.60
74722;BME280;63470;49.826;6.740;2023-05-02T04:59:12;100703.04;;;8.10;55.55
74722;BME280;63470;49.826;6.740;2023-05-02T05:01:43;100704.64;;;8.27;55.60
74722;BME280;63470;49.826;6.740;2023-05-02T05:04:13;100713.45;;;8.43;55.55
74722;BME280;63470;49.826;6.740;2023-05-02T05:06:44;100714.05;;;8.60;55.44
74722;BME280;63470;49.826;6.740;2023-05-02T05:09:17;100718.15;;;8.78;55.37
74722;BME280;63470;49.826;6.740;2023-05-02T05:11:48;100717.47;;;8.92;55.42
74722;BME280;63470;49.826;6.740;2023-05-02T05:14:16;100719.50;;;9.06;55.37
74722;BME280;63470;49.826;6.740;2023-05-02T05:16:46;100721.94;;;9.20;55.25
74722;BME280;63470;49.826;6.740;2023-05-02T05:19:20;100719.25;;;9.36;55.07
74722;BME280;63470;49.826;6.740;2023-05-02T05:21:47;100727.23;;;9.40;54.99
74722;BME280;63470;49.826;6.740;2023-05-02T05:24:17;100729.95;;;9.45;55.02
74722;BME280;63470;49.826;6.740;2023-05-02T05:26:48;100737.09;;;9.48;55.10
74722;BME280;63470;49.826;6.740;2023-05-02T05:29:19;100739.52;;;9.53;55.11
74722;BME280;63470;49.826;6.740;2023-05-02T05:31:49;100742.97;;;9.62;55.13
74722;BME280;63470;49.826;6.740;2023-05-02T05:34:20;100751.27;;;9.69;55.16
74722;BME280;63470;49.826;6.740;2023-05-02T05:36:50;100754.79;;;9.75;55.20
74722;BME280;63470;49.826;6.740;2023-05-02T05:39:21;100753.94;;;9.84;55.15
74722;BME280;63470;49.826;6.740;2023-05-02T05:41:52;100757.44;;;9.91;55.14
74722;BME280;63470;49.826;6.740;2023-05-02T05:44:21;100756.57;;;9.99;55.11
74722;BME280;63470;49.826;6.740;2023-05-02T05:46:52;100763.22;;;10.05;55.05
74722;BME280;63470;49.826;6.740;2023-05-02T05:49:24;100764.11;;;10.07;55.13
74722;BME280;63470;49.826;6.740;2023-05-02T05:51:53;100770.45;;;10.10;55.12
74722;BME280;63470;49.826;6.740;2023-05-02T05:54:23;100773.59;;;10.16;55.17
74722;BME280;63470;49.826;6.740;2023-05-02T05:56:56;100771.14;;;10.26;55.09
74722;BME280;63470;49.826;6.740;2023-05-02T05:59:24;100783.33;;;10.38;54.97
74722;BME280;63470;49.826;6.740;2023-05-02T06:01:55;100780.39;;;10.50;54.88
74722;BME280;63470;49.826;6.740;2023-05-02T06:04:25;100791.77;;;10.61;54.75
74722;BME280;63470;49.826;6.740;2023-05-02T06:06:55;100795.05;;;10.64;54.72
74722;BME280;63470;49.826;6.740;2023-05-02T06:09:31;100795.38;;;10.66;54.75
74722;BME280;63470;49.826;6.740;2023-05-02T06:12:02;100797.70;;;10.64;54.71
74722;BME280;63470;49.826;6.740;2023-05-02T06:14:30;100796.69;;;10.66;54.79
74722;BME280;63470;49.826;6.740;2023-05-02T06:17:02;100794.68;;;10.70;54.75
74722;BME280;63470;49.826;6.740;2023-05-02T06:19:28;100793.65;;;10.73;54.79
74722;BME280;63470;49.826;6.740;2023-05-02T06:22:01;100800.81;;;10.78;54.79
74722;BME280;63470;49.826;6.740;2023-05-02T06:24:29;100803.83;;;10.81;54.76
74722;BME280;63470;49.826;6.740;2023-05-02T06:27:02;100810.33;;;10.86;54.74
74722;BME280;63470;49.826;6.740;2023-05-02T06:29:30;100807.06;;;10.89;54.70
74722;BME280;63470;49.826;6.740;2023-05-02T06:32:00;100812.50;;;10.91;54.73
74722;BME280;63470;49.826;6.740;2023-05-02T06:34:31;100814.30;;;10.94;54.79
74722;BME280;63470;49.826;6.740;2023-05-02T06:37:04;100817.82;;;10.98;54.72
74722;BME280;63470;49.826;6.740;2023-05-02T06:39:35;100822.66;;;11.02;54.73
74722;BME280;63470;49.826;6.740;2023-05-02T06:42:04;100824.36;;;11.06;54.76
74722;BME280;63470;49.826;6.740;2023-05-02T06:44:37;100825.17;;;11.08;54.78
74722;BME280;63470;49.826;6.740;2023-05-02T06:47:07;100827.16;;;11.15;54.71
74722;BME280;63470;49.826;6.740;2023-05-02T06:49:34;100827.73;;;11.27;54.64
74722;BME280;63470;49.826;6.740;2023-05-02T06:52:05;100828.86;;;11.39;54.51
74722;BME280;63470;49.826;6.740;2023-05-02T06:54:35;100837.19;;;11.48;54.43
74722;BME280;63470;49.826;6.740;2023-05-02T06:57:08;100836.58;;;11.57;54.35
74722;BME280;63470;49.826;6.740;2023-05-02T06:59:39;100832.83;;;11.62;54.28
74722;BME280;63470;49.826;6.740;2023-05-02T07:02:07;100830.78;;;11.60;54.41
74722;BME280;63470;49.826;6.740;2023-05-02T07:04:39;100838.66;;;11.68;54.46
74722;BME280;63470;49.826;6.740;2023-05-02T07:07:10;100842.09;;;11.81;54.37
74722;BME280;63470;49.826;6.740;2023-05-02T07:09:41;100845.65;;;11.95;54.34
74722;BME280;63470;49.826;6.740;2023-05-02T07:12:09;100838.20;;;12.21;54.19
74722;BME280;63470;49.826;6.740;2023-05-02T07:14:39;100833.27;;;12.54;53.77
74722;BME280;63470;49.826;6.740;2023-05-02T07:17:15;100832.55;;;12.76;53.69
74722;BME280;63470;49.826;6.740;2023-05-02T07:19:40;100835.70;;;13.15;53.61
74722;BME280;63470;49.826;6.740;2023-05-02T07:22:11;100834.42;;;14.05;53.16
74722;BME280;63470;49.826;6.740;2023-05-02T07:24:41;100838.03;;;14.93;52.68
74722;BME280;63470;49.826;6.740;2023-05-02T07:27:12;100841.27;;;15.66;52.18
74722;BME280;63470;49.826;6.740;2023-05-02T07:29:43;100847.56;;;15.88;52.11
74722;BME280;63470;49.826;6.740;2023-05-02T07:32:13;100845.61;;;15.81;52.34
74722;BME280;63470;49.826;6.740;2023-05-02T07:34:44;100851.20;;;15.68;52.58
74722;BME280;63470;49.826;6.740;2023-05-02T07:37:17;100848.13;;;15.52;52.82
74722;BME280;63470;49.826;6.740;2023-05-02T07:39:46;100849.71;;;15.52;52.93
74722;BME280;63470;49.826;6.740;2023-05-02T07:42:16;100846.12;;;15.53;53.03
74722;BME280;63470;49.826;6.740;2023-05-02T07:44:46;100842.22;;;15.95;52.78
74722;BME280;63470;49.826;6.740;2023-05-02T07:47:17;100844.45;;;16.53;52.24
74722;BME280;63470;49.826;6.740;2023-05-02T07:49:51;100836.81;;;17.66;51.39
74722;BME280;63470;49.826;6.740;2023-05-02T07:52:18;100837.30;;;19.09;50.17
74722;BME280;63470;49.826;6.740;2023-05-02T07:54:49;100838.17;;;20.30;49.26
74722;BME280;63470;49.826;6.740;2023-05-02T07:57:18;100840.95;;;20.71;49.34
74722;BME280;63470;49.826;6.740;2023-05-02T07:59:49;100839.69;;;20.59;49.89
74722;BME280;63470;49.826;6.740;2023-05-02T08:02:21;100843.17;;;20.28;50.62
74722;BME280;63470;49.826;6.740;2023-05-02T08:04:52;100844.23;;;19.68;51.39
74722;BME280;63470;49.826;6.740;2023-05-02T08:07:21;100844.70;;;18.97;52.30
74722;BME280;63470;49.826;6.740;2023-05-02T08:09:51;100847.48;;;18.20;53.37
74722;BME280;63470;49.826;6.740;2023-05-02T08:12:20;100854.23;;;17.59;54.10
74722;BME280;63470;49.826;6.740;2023-05-02T08:14:51;100856.27;;;17.13;54.59
74722;BME280;63470;49.826;6.740;2023-05-02T08:17:21;100857.23;;;16.76;54.87
74722;BME280;63470;49.826;6.740;2023-05-02T08:19:52;100860.72;;;16.43;55.04
74722;BME280;63470;49.826;6.740;2023-05-02T08:22:23;100866.92;;;16.14;55.25
74722;BME280;63470;49.826;6.740;2023-05-02T08:24:53;100870.52;;;16.01;55.32
74722;BME280;63470;49.826;6.740;2023-05-02T08:27:23;100873.47;;;16.03;55.15
74722;BME280;63470;49.826;6.740;2023-05-02T08:29:54;100872.09;;;16.19;54.77
74722;BME280;63470;49.826;6.740;2023-05-02T08:32:26;100867.25;;;16.34;54.43
74722;BME280;63470;49.826;6.740;2023-05-02T08:34:55;100866.47;;;16.50;54.11
74722;BME280;63470;49.826;6.740;2023-05-02T08:37:25;100859.52;;;16.69;53.80
74722;BME280;63470;49.826;6.740;2023-05-02T08:39:56;100858.22;;;17.17;53.41
74722;BME280;63470;49.826;6.740;2023-05-02T08:42:32;100859.62;;;17.84;53.04
74722;BME280;63470;49.826;6.740;2023-05-02T08:44:57;100857.71;;;18.02;52.98
74722;BME280;63470;49.826;6.740;2023-05-02T08:47:28;100861.55;;;18.09;52.84
74722;BME280;63470;49.826;6.740;2023-05-02T08:50:01;100866.34;;;18.30;52.66
74722;BME280;63470;49.826;6.740;2023-05-02T08:52:31;100861.63;;;18.42;52.77
74722;BME280;63470;49.826;6.740;2023-05-02T08:55:02;100869.88;;;18.14;53.12
74722;BME280;63470;49.826;6.740;2023-05-02T08:57:30;100873.41;;;17.77;53.65
74722;BME280;63470;49.826;6.740;2023-05-02T09:00:00;100875.61;;;17.43;54.03
74722;BME280;63470;49.826;6.740;2023-05-02T09:02:54;100875.06;;;17.18;54.35
74722;BME280;63470;49.826;6.740;2023-05-02T09:05:05;100878.56;;;17.08;54.49
74722;BME280;63470;49.826;6.740;2023-05-02T09:07:43;100879.08;;;17.17;54.41
74722;BME280;63470;49.826;6.740;2023-05-02T09:10:06;100879.36;;;17.88;53.65
74722;BME280;63470;49.826;6.740;2023-05-02T09:12:32;100873.80;;;19.20;52.79
74722;BME280;63470;49.826;6.740;2023-05-02T09:15:09;100876.10;;;19.84;52.51
74722;BME280;63470;49.826;6.740;2023-05-02T09:17:44;100876.02;;;19.86;52.68
74722;BME280;63470;49.826;6.740;2023-05-02T09:20:05;100880.80;;;19.69;52.95
74722;BME280;63470;49.826;6.740;2023-05-02T09:22:35;100874.32;;;19.36;53.43
74722;BME280;63470;49.826;6.740;2023-05-02T09:25:06;100876.35;;;19.43;53.43
74722;BME280;63470;49.826;6.740;2023-05-02T09:27:48;100880.72;;;19.75;53.22
74722;BME280;63470;49.826;6.740;2023-05-02T09:30:23;100880.42;;;20.19;52.73
74722;BME280;63470;49.826;6.740;2023-05-02T09:32:46;100871.31;;;20.41;52.42
74722;BME280;63470;49.826;6.740;2023-05-02T09:35:08;100869.53;;;20.57;52.27
74722;BME280;63470;49.826;6.740;2023-05-02T09:37:37;100875.45;;;20.77;52.21
74722;BME280;63470;49.826;6.740;2023-05-02T09:40:09;100879.14;;;20.76;52.30
74722;BME280;63470;49.826;6.740;2023-05-02T09:42:38;100884.62;;;20.98;52.15
74722;BME280;63470;49.826;6.740;2023-05-02T09:45:20;100885.49;;;20.80;52.53
74722;BME280;63470;49.826;6.740;2023-05-02T09:47:40;100887.89;;;20.48;52.86
74722;BME280;63470;49.826;6.740;2023-05-02T09:50:10;100889.22;;;20.45;52.94
74722;BME280;63470;49.826;6.740;2023-05-02T09:52:40;100886.60;;;21.66;52.06
74722;BME280;63470;49.826;6.740;2023-05-02T09:55:20;100882.80;;;22.53;51.46
74722;BME280;63470;49.826;6.740;2023-05-02T09:57:41;100884.20;;;22.55;51.54
74722;BME280;63470;49.826;6.740;2023-05-02T10:00:15;100891.09;;;22.58;51.77
74722;BME280;63470;49.826;6.740;2023-05-02T10:02:42;100888.12;;;22.45;52.28
74722;BME280;63470;49.826;6.740;2023-05-02T10:05:13;100893.16;;;22.00;52.95
74722;BME280;63470;49.826;6.740;2023-05-02T10:07:44;100892.14;;;21.38;53.53
74722;BME280;63470;49.826;6.740;2023-05-02T10:10:16;100899.33;;;20.68;54.23
74722;BME280;63470;49.826;6.740;2023-05-02T10:12:46;100904.00;;;20.05;54.71
74722;BME280;63470;49.826;6.740;2023-05-02T10:15:17;100902.42;;;19.45;55.26
74722;BME280;63470;49.826;6.740;2023-05-02T10:17:48;100904.40;;;18.92;55.71
74722;BME280;63470;49.826;6.740;2023-05-02T10:20:21;100905.33;;;18.42;56.05
74722;BME280;63470;49.826;6.740;2023-05-02T10:22:48;100914.14;;;18.03;56.29
74722;BME280;63470;49.826;6.740;2023-05-02T10:25:18;100914.31;;;17.72;56.35
74722;BME280;63470;49.826;6.740;2023-05-02T10:27:48;100910.98;;;17.44;56.42
74722;BME280;63470;49.826;6.740;2023-05-02T10:30:19;100908.06;;;17.31;56.32
74722;BME280;63470;49.826;6.740;2023-05-02T10:32:51;100907.59;;;17.90;55.63
74722;BME280;63470;49.826;6.740;2023-05-02T10:35:21;100900.24;;;19.22;53.98
74722;BME280;63470;49.826;6.740;2023-05-02T10:37:52;100895.73;;;19.68;53.21
74722;BME280;63470;49.826;6.740;2023-05-02T10:40:22;100895.44;;;19.87;52.94
74722;BME280;63470;49.826;6.740;2023-05-02T10:42:52;100882.80;;;20.83;51.94
74722;BME280;63470;49.826;6.740;2023-05-02T10:45:34;100882.16;;;22.30;50.63
74722;BME280;63470;49.826;6.740;2023-05-02T10:48:13;100871.92;;;23.27;49.67
74722;BME280;63470;49.826;6.740;2023-05-02T10:50:45;100880.41;;;23.96;49.11
74722;BME280;63470;49.826;6.740;2023-05-02T10:52:55;100878.33;;;23.57;49.93
74722;BME280;63470;49.826;6.740;2023-05-02T10:55:25;100874.12;;;22.91;51.12
74722;BME280;63470;49.826;6.740;2023-05-02T11:00:30;100873.89;;;21.52;53.23
74722;BME280;63470;49.826;6.740;2023-05-02T11:02:57;100871.33;;;21.89;53.05
74722;BME280;63470;49.826;6.740;2023-05-02T11:05:28;100870.43;;;22.81;51.92
74722;BME280;63470;49.826;6.740;2023-05-02T11:10:29;100869.64;;;23.73;50.80
74722;BME280;63470;49.826;6.740;2023-05-02T11:13:01;100870.06;;;23.98;50.69
74722;BME280;63470;49.826;6.740;2023-05-02T11:15:52;100866.99;;;23.92;50.98
74722;BME280;63470;49.826;6.740;2023-05-02T11:18:02;100866.45;;;22.97;52.29
74722;BME280;63470;49.826;6.740;2023-05-02T11:20:33;100871.22;;;22.19;53.37
74722;BME280;63470;49.826;6.740;2023-05-02T11:23:19;100866.97;;;21.62;54.06
74722;BME280;63470;49.826;6.740;2023-05-02T11:25:35;100866.05;;;21.41;54.12
74722;BME280;63470;49.826;6.740;2023-05-02T11:28:06;100871.28;;;21.10;54.26
74722;BME280;63470;49.826;6.740;2023-05-02T11:30:36;100870.38;;;20.71;54.64
74722;BME280;63470;49.826;6.740;2023-05-02T11:33:10;100866.72;;;20.49;54.70
74722;BME280;63470;49.826;6.740;2023-05-02T11:35:34;100872.86;;;20.27;54.76
74722;BME280;63470;49.826;6.740;2023-05-02T11:38:10;100871.20;;;20.17;54.67
74722;BME280;63470;49.826;6.740;2023-05-02T11:40:35;100869.39;;;20.55;54.31
74722;BME280;63470;49.826;6.740;2023-05-02T11:43:17;100868.83;;;21.04;53.60
74722;BME280;63470;49.826;6.740;2023-05-02T11:45:37;100868.37;;;21.10;53.16
74722;BME280;63470;49.826;6.740;2023-05-02T11:48:08;100875.81;;;20.87;53.25
74722;BME280;63470;49.826;6.740;2023-05-02T11:50:41;100875.62;;;20.45;53.69
74722;BME280;63470;49.826;6.740;2023-05-02T11:53:11;100880.38;;;20.10;54.04
74722;BME280;63470;49.826;6.740;2023-05-02T11:55:45;100881.20;;;19.79;54.29
74722;BME280;63470;49.826;6.740;2023-05-02T11:58:12;100874.55;;;19.47;54.47
74722;BME280;63470;49.826;6.740;2023-05-02T12:00:40;100877.49;;;19.29;54.63
74722;BME280;63470;49.826;6.740;2023-05-02T12:03:22;100876.66;;;19.31;54.55
74722;BME280;63470;49.826;6.740;2023-05-02T12:05:40;100880.54;;;20.09;54.07
74722;BME280;63470;49.826;6.740;2023-05-02T12:08:18;100880.35;;;20.85;52.95
74722;BME280;63470;49.826;6.740;2023-05-02T12:10:42;100875.17;;;21.45;52.26
74722;BME280;63470;49.826;6.740;2023-05-02T12:13:13;100871.96;;;22.27;51.67
74722;BME280;63470;49.826;6.740;2023-05-02T12:15:44;100866.94;;;23.23;50.67
74722;BME280;63470;49.826;6.740;2023-05-02T12:18:15;100868.64;;;24.36;49.62
74722;BME280;63470;49.826;6.740;2023-05-02T12:20:45;100863.06;;;25.44;48.82
74722;BME280;63470;49.826;6.740;2023-05-02T12:23:15;100868.03;;;25.88;48.46
74722;BME280;63470;49.826;6.740;2023-05-02T12:25:46;100871.96;;;25.22;49.44
74722;BME280;63470;49.826;6.740;2023-05-02T12:28:17;100882.64;;;24.15;51.02
74722;BME280;63470;49.826;6.740;2023-05-02T12:30:48;100885.34;;;23.05;52.63
74722;BME280;63470;49.826;6.740;2023-05-02T12:33:18;100898.56;;;22.04;53.71
74722;BME280;63470;49.826;6.740;2023-05-02T12:35:48;100907.56;;;20.29;55.93
74722;BME280;63470;49.826;6.740;2023-05-02T12:38:23;100908.67;;;19.02;57.57
74722;BME280;63470;49.826;6.740;2023-05-02T12:40:51;100908.41;;;18.26;57.87
74722;BME280;63470;49.826;6.740;2023-05-02T12:43:21;100910.44;;;17.81;57.59
74722;BME280;63470;49.826;6.740;2023-05-02T12:46:09;100910.42;;;17.57;57.38
74722;BME280;63470;49.826;6.740;2023-05-02T12:48:25;100911.83;;;17.79;57.42
74722;BME280;63470;49.826;6.740;2023-05-02T12:50:53;100910.39;;;18.49;56.44
74722;BME280;63470;49.826;6.740;2023-05-02T12:53:42;100908.30;;;19.56;55.06
74722;BME280;63470;49.826;6.740;2023-05-02T12:56:02;100905.06;;;21.15;53.41
74722;BME280;63470;49.826;6.740;2023-05-02T12:58:28;100894.85;;;22.78;51.67
74722;BME280;63470;49.826;6.740;2023-05-02T13:00:55;100894.06;;;24.00;50.47
74722;BME280;63470;49.826;6.740;2023-05-02T13:03:29;100896.16;;;24.43;49.81
74722;BME280;63470;49.826;6.740;2023-05-02T13:05:56;100896.16;;;23.83;50.40
74722;BME280;63470;49.826;6.740;2023-05-02T13:08:27;100888.34;;;22.60;52.08
74722;BME280;63470;49.826;6.740;2023-05-02T13:10:57;100892.42;;;21.61;53.58
74722;BME280;63470;49.826;6.740;2023-05-02T13:13:29;100895.25;;;20.86;54.59
74722;BME280;63470;49.826;6.740;2023-05-02T13:15:58;100892.58;;;20.40;55.17
74722;BME280;63470;49.826;6.740;2023-05-02T13:18:28;100900.56;;;20.24;55.16
74722;BME280;63470;49.826;6.740;2023-05-02T13:20:59;100900.64;;;20.15;55.00
74722;BME280;63470;49.826;6.740;2023-05-02T13:23:29;100906.19;;;19.98;55.16
74722;BME280;63470;49.826;6.740;2023-05-02T13:26:00;100900.22;;;19.85;55.12
74722;BME280;63470;49.826;6.740;2023-05-02T13:28:34;100899.41;;;19.84;54.93
74722;BME280;63470;49.826;6.740;2023-05-02T13:31:01;100900.72;;;19.86;54.61
74722;BME280;63470;49.826;6.740;2023-05-02T13:33:31;100902.78;;;19.96;54.33
74722;BME280;63470;49.826;6.740;2023-05-02T13:36:02;100900.23;;;20.05;54.08